createdAt,value
2023-04-15T00:02:25.812Z,2.72
2023-04-15T00:04:53.090Z,1.88
2023-04-15T00:07:20.188Z,2.42
2023-04-15T00:09:47.275Z,1.30
2023-04-15T00:12:14.432Z,1.95
2023-04-15T00:14:41.393Z,2.65
2023-04-15T00:17:08.865Z,2.83
2023-04-15T00:19:35.868Z,2.03
2023-04-15T00:22:02.910Z,1.42
2023-04-15T00:24:31.427Z,1.17
2023-04-15T00:26:58.914Z,2.72
2023-04-15T00:29:26.329Z,2.38
2023-04-15T00:31:57.137Z,3.08
2023-04-15T00:34:24.400Z,3.85
2023-04-15T00:36:52.778Z,3.60
2023-04-15T00:39:19.770Z,2.72
2023-04-15T00:41:49.532Z,3.50
2023-04-15T00:44:18.930Z,2.83
2023-04-15T00:46:45.933Z,7.80
2023-04-15T00:49:13.343Z,6.68
2023-04-15T00:51:40.818Z,3.05
2023-04-15T00:54:08.129Z,4.82
2023-04-15T00:56:36.308Z,4.07
2023-04-15T00:59:05.773Z,4.65
2023-04-15T01:01:34.542Z,6.50
2023-04-15T01:04:01.784Z,6.15
2023-04-15T01:06:29.306Z,4.22
2023-04-15T01:08:56.601Z,6.13
2023-04-15T01:11:24.295Z,5.25
2023-04-15T01:13:52.332Z,4.70
2023-04-15T01:16:20.146Z,4.38
2023-04-15T01:18:47.113Z,5.65
2023-04-15T01:21:14.150Z,7.85
2023-04-15T01:23:41.726Z,3.75
2023-04-15T01:26:12.278Z,4.18
2023-04-15T01:28:39.309Z,4.10
2023-04-15T01:31:24.512Z,4.70
2023-04-15T01:33:54.248Z,6.70
2023-04-15T01:36:24.108Z,7.25
2023-04-15T01:38:54.651Z,5.00
2023-04-15T01:41:28.327Z,3.65
2023-04-15T01:43:55.494Z,2.85
2023-04-15T01:46:23.036Z,3.55
2023-04-15T01:48:50.205Z,4.53
2023-04-15T01:51:20.106Z,7.47
2023-04-15T01:53:47.072Z,3.97
2023-04-15T01:56:16.468Z,3.10
2023-04-15T01:58:43.831Z,2.97
2023-04-15T02:01:11.617Z,2.25
2023-04-15T02:03:39.762Z,4.43
2023-04-15T02:06:06.846Z,2.80
2023-04-15T02:08:33.872Z,1.90
2023-04-15T02:11:01.389Z,3.28
2023-04-15T02:13:28.569Z,2.58
2023-04-15T02:15:55.855Z,2.83
2023-04-15T02:18:25.357Z,1.67
2023-04-15T02:20:57.472Z,2.30
2023-04-15T02:23:27.526Z,4.18
2023-04-15T02:25:54.782Z,3.45
2023-04-15T02:28:22.239Z,2.95
2023-04-15T02:30:53.560Z,1.30
2023-04-15T02:33:21.701Z,1.80
2023-04-15T02:35:48.679Z,1.27
2023-04-15T02:38:18.049Z,1.52
2023-04-15T02:40:51.735Z,2.80
2023-04-15T02:43:23.884Z,1.50
2023-04-15T02:45:51.396Z,1.60
2023-04-15T02:48:21.159Z,1.38
2023-04-15T02:50:48.353Z,2.50
2023-04-15T02:53:17.841Z,1.05
2023-04-15T02:55:44.889Z,1.55
2023-04-15T02:58:11.892Z,3.72
2023-04-15T03:00:41.614Z,1.00
2023-04-15T03:03:11.714Z,2.45
2023-04-15T03:05:39.332Z,3.90
2023-04-15T03:08:06.789Z,2.40
2023-04-15T03:10:33.960Z,1.20
2023-04-15T03:13:03.052Z,2.10
2023-04-15T03:15:30.122Z,0.95
2023-04-15T03:17:57.319Z,0.95
2023-04-15T03:20:24.841Z,2.17
2023-04-15T03:22:51.994Z,1.58
2023-04-15T03:25:22.102Z,0.93
2023-04-15T03:27:49.281Z,1.98
2023-04-15T03:30:22.365Z,5.50
2023-04-15T03:32:49.577Z,1.20
2023-04-15T03:35:19.103Z,1.35
2023-04-15T03:37:46.565Z,1.35
2023-04-15T03:40:13.784Z,4.57
2023-04-15T03:42:40.806Z,1.65
2023-04-15T03:45:08.187Z,3.90
2023-04-15T03:47:35.398Z,2.47
2023-04-15T03:50:02.442Z,2.55
2023-04-15T03:52:29.417Z,2.13
2023-04-15T03:54:56.361Z,1.48
2023-04-15T03:57:23.346Z,2.42
2023-04-15T03:59:50.492Z,1.83
2023-04-15T04:02:20.070Z,2.70
2023-04-15T04:04:47.274Z,2.95
2023-04-15T04:07:18.175Z,3.25
2023-04-15T04:09:46.737Z,2.67
2023-04-15T04:12:14.330Z,2.33
2023-04-15T04:14:41.432Z,2.53
2023-04-15T04:17:08.614Z,1.45
2023-04-15T04:19:35.799Z,3.85
2023-04-15T04:22:02.998Z,2.53
2023-04-15T04:24:29.927Z,4.55
2023-04-15T04:26:57.425Z,2.90
2023-04-15T04:29:24.628Z,3.22
2023-04-15T04:31:51.855Z,3.15
2023-04-15T04:34:22.126Z,5.68
2023-04-15T04:36:49.366Z,4.80
2023-04-15T04:39:16.463Z,3.45
2023-04-15T04:41:43.861Z,2.70
2023-04-15T04:44:10.821Z,3.30
2023-04-15T04:46:37.849Z,4.13
2023-04-15T04:49:04.944Z,3.00
2023-04-15T04:51:32.350Z,3.28
2023-04-15T04:54:00.457Z,3.80
2023-04-15T04:56:28.417Z,3.22
2023-04-15T04:58:58.231Z,3.90
2023-04-15T05:01:26.830Z,5.32
2023-04-15T05:03:54.015Z,7.45
2023-04-15T05:06:21.186Z,2.70
2023-04-15T05:08:48.685Z,2.28
2023-04-15T05:11:15.695Z,3.42
2023-04-15T05:13:42.769Z,2.67
2023-04-15T05:16:09.805Z,1.48
2023-04-15T05:18:38.102Z,2.97
2023-04-15T05:21:05.368Z,2.50
2023-04-15T05:23:32.590Z,1.35
2023-04-15T05:25:59.665Z,2.30
2023-04-15T05:28:27.498Z,3.50
2023-04-15T05:30:54.630Z,3.10
2023-04-15T05:33:21.627Z,4.50
2023-04-15T05:35:48.629Z,2.80
2023-04-15T05:38:15.809Z,3.13
2023-04-15T05:40:43.037Z,2.70
2023-04-15T05:43:10.225Z,2.75
2023-04-15T05:45:37.430Z,3.17
2023-04-15T05:48:04.484Z,5.10
2023-04-15T05:50:31.556Z,4.63
2023-04-15T05:52:58.778Z,5.28
2023-04-15T05:55:25.927Z,4.47
2023-04-15T05:57:53.011Z,2.88
2023-04-15T06:00:20.267Z,3.15
2023-04-15T06:02:50.372Z,2.33
2023-04-15T06:06:15.643Z,3.33
2023-04-15T06:08:42.773Z,2.28
2023-04-15T06:11:09.886Z,3.90
2023-04-15T06:13:38.579Z,5.13
2023-04-15T06:16:06.047Z,6.88
2023-04-15T06:18:33.372Z,1.75
2023-04-15T06:21:03.058Z,3.25
2023-04-15T06:23:30.059Z,3.08
2023-04-15T06:25:57.222Z,3.00
2023-04-15T06:28:24.226Z,2.67
2023-04-15T06:30:51.446Z,3.63
2023-04-15T06:33:21.394Z,2.78
2023-04-15T06:35:49.865Z,3.58
2023-04-15T06:38:17.041Z,2.42
2023-04-15T06:40:44.266Z,4.65
2023-04-15T06:43:11.590Z,2.53
2023-04-15T06:45:38.819Z,3.38
2023-04-15T06:48:12.925Z,2.63
2023-04-15T06:50:39.924Z,2.55
2023-04-15T06:53:07.360Z,1.80
2023-04-15T06:55:34.518Z,4.65
2023-04-15T06:58:01.584Z,1.73
2023-04-15T07:00:28.976Z,2.60
2023-04-15T07:02:56.124Z,2.15
2023-04-15T07:05:23.983Z,2.13
2023-04-15T07:07:51.622Z,2.92
2023-04-15T07:10:22.029Z,2.65
2023-04-15T07:12:51.388Z,2.45
2023-04-15T07:15:21.224Z,2.05
2023-04-15T07:17:51.187Z,2.85
2023-04-15T07:20:19.706Z,2.22
2023-04-15T07:22:46.834Z,1.90
2023-04-15T07:25:15.636Z,1.88
2023-04-15T07:27:42.637Z,1.83
2023-04-15T07:30:10.812Z,2.33
2023-04-15T07:32:37.875Z,2.63
2023-04-15T07:35:08.022Z,3.50
2023-04-15T07:37:35.017Z,4.15
2023-04-15T07:40:02.416Z,3.67
2023-04-15T07:42:31.068Z,2.35
2023-04-15T07:45:02.440Z,4.50
2023-04-15T07:47:29.678Z,4.15
2023-04-15T07:49:59.175Z,3.03
2023-04-15T07:52:26.667Z,3.63
2023-04-15T07:54:54.114Z,3.22
2023-04-15T07:57:24.113Z,4.13
2023-04-15T07:59:51.399Z,2.72
2023-04-15T08:02:24.038Z,3.90
2023-04-15T08:04:51.476Z,5.32
2023-04-15T08:07:48.145Z,3.95
2023-04-15T08:10:16.665Z,4.18
2023-04-15T08:12:49.876Z,3.25
2023-04-15T08:15:20.866Z,3.85
2023-04-15T08:18:01.451Z,7.90
2023-04-15T08:20:28.877Z,5.00
2023-04-15T08:22:58.728Z,5.15
2023-04-15T08:25:29.533Z,4.35
2023-04-15T08:27:57.718Z,6.80
2023-04-15T08:30:24.977Z,7.40
2023-04-15T08:32:52.413Z,5.65
2023-04-15T08:35:19.427Z,8.25
2023-04-15T08:37:49.441Z,7.82
2023-04-15T08:40:16.489Z,6.32
2023-04-15T08:42:50.967Z,5.20
2023-04-15T08:45:18.539Z,10.55
2023-04-15T08:47:58.619Z,4.63
2023-04-15T08:50:25.782Z,5.75
2023-04-15T08:53:01.884Z,4.22
2023-04-15T08:55:40.431Z,5.88
2023-04-15T08:58:07.535Z,9.07
2023-04-15T09:00:37.981Z,7.93
2023-04-15T09:06:06.625Z,4.85
2023-04-15T09:11:40.257Z,5.53
2023-04-15T09:14:44.270Z,4.18
2023-04-15T09:24:31.875Z,5.68
2023-04-15T09:27:25.944Z,6.88
2023-04-15T09:33:09.154Z,5.18
2023-04-15T09:35:45.638Z,5.97
2023-04-15T09:41:08.314Z,8.07
2023-04-15T09:43:46.368Z,4.05
2023-04-15T09:46:49.400Z,5.47
2023-04-15T09:53:13.807Z,5.72
2023-04-15T09:55:41.277Z,8.43
2023-04-15T09:59:02.586Z,7.55
2023-04-15T10:04:35.712Z,8.35
2023-04-15T10:07:45.884Z,8.85
2023-04-15T10:14:10.055Z,7.10
2023-04-15T10:25:34.907Z,5.00
2023-04-15T10:35:41.828Z,5.13
2023-04-15T10:42:36.608Z,6.50
2023-04-15T10:46:04.000Z,4.40
2023-04-15T10:55:11.909Z,10.60
2023-04-15T10:57:49.900Z,3.85
2023-04-15T11:00:57.901Z,5.05
2023-04-15T11:03:43.906Z,5.32
2023-04-15T11:10:55.533Z,6.00
2023-04-15T11:17:29.933Z,5.80
2023-04-15T11:20:57.844Z,5.35
2023-04-15T11:27:13.285Z,4.00
2023-04-15T11:29:40.909Z,3.40
2023-04-15T11:32:09.827Z,6.22
2023-04-15T11:34:43.974Z,5.38
2023-04-15T11:37:23.093Z,5.68
2023-04-15T11:40:15.490Z,7.80
2023-04-15T11:42:49.437Z,6.22
2023-04-15T11:45:21.848Z,7.65
2023-04-15T11:47:55.579Z,2.30
2023-04-15T11:50:23.609Z,5.68
2023-04-15T11:52:59.760Z,5.97
2023-04-15T11:55:31.024Z,6.75
2023-04-15T11:58:34.618Z,6.35
2023-04-15T12:01:09.696Z,5.53
2023-04-15T12:03:46.184Z,5.75
2023-04-15T12:06:49.370Z,4.38
2023-04-15T12:09:53.131Z,4.35
2023-04-15T12:12:29.828Z,3.77
2023-04-15T12:17:55.979Z,5.75
2023-04-15T12:20:26.796Z,4.10
2023-04-15T12:23:25.855Z,8.73
2023-04-15T12:26:33.999Z,6.85
2023-04-15T12:40:59.598Z,4.63
2023-04-15T12:43:43.946Z,2.67
2023-04-15T12:50:16.068Z,2.47
2023-04-15T12:55:51.281Z,6.05
2023-04-15T12:58:26.864Z,4.70
2023-04-15T13:00:57.848Z,6.60
2023-04-15T13:04:00.925Z,7.55
2023-04-15T13:06:24.057Z,5.18
2023-04-15T13:09:06.283Z,6.63
2023-04-15T13:11:49.219Z,3.92
2023-04-15T13:14:22.540Z,5.28
2023-04-15T13:17:20.715Z,2.78
2023-04-15T13:19:59.092Z,5.28
2023-04-15T13:22:34.275Z,4.00
2023-04-15T13:25:13.042Z,2.33
2023-04-15T13:27:42.180Z,3.85
2023-04-15T13:30:29.390Z,2.30
2023-04-15T13:33:01.669Z,5.95
2023-04-15T13:35:36.433Z,3.88
2023-04-15T13:38:06.719Z,6.85
2023-04-15T13:40:55.805Z,4.43
2023-04-15T13:43:33.120Z,5.45
2023-04-15T13:46:00.403Z,4.20
2023-04-15T13:48:32.154Z,9.40
2023-04-15T13:51:01.572Z,3.97
2023-04-15T13:53:37.959Z,10.02
2023-04-15T13:56:09.547Z,7.50
2023-04-15T13:58:37.406Z,9.38
2023-04-15T14:01:05.680Z,4.72
2023-04-15T14:03:34.630Z,3.10
2023-04-15T14:06:02.300Z,6.22
2023-04-15T14:08:29.698Z,5.15
2023-04-15T14:10:57.768Z,3.95
2023-04-15T14:13:24.978Z,2.70
2023-04-15T14:15:51.865Z,5.28
2023-04-15T14:18:51.420Z,7.97
2023-04-15T14:21:19.293Z,4.07
2023-04-15T14:23:54.031Z,4.45
2023-04-15T14:26:21.174Z,8.48
2023-04-15T14:28:48.588Z,2.83
2023-04-15T14:32:11.131Z,9.13
2023-04-15T14:34:36.255Z,4.60
2023-04-15T14:37:06.734Z,3.40
2023-04-15T14:39:37.045Z,2.78
2023-04-15T14:42:10.199Z,7.22
2023-04-15T14:44:37.576Z,4.93
2023-04-15T14:47:04.854Z,5.47
2023-04-15T14:49:34.466Z,2.70
2023-04-15T14:52:01.582Z,3.58
2023-04-15T14:54:28.523Z,4.43
2023-04-15T14:56:58.107Z,4.38
2023-04-15T14:59:25.290Z,5.47
2023-04-15T15:01:53.301Z,4.82
2023-04-15T15:04:20.911Z,5.53
2023-04-15T15:06:49.199Z,5.13
2023-04-15T15:09:19.942Z,3.75
2023-04-15T15:11:47.293Z,4.72
2023-04-15T15:14:15.956Z,6.25
2023-04-15T15:16:44.015Z,2.20
2023-04-15T15:19:11.197Z,6.80
2023-04-15T15:21:38.641Z,6.07
2023-04-15T15:24:06.215Z,4.10
2023-04-15T15:26:33.506Z,4.50
2023-04-15T15:29:00.616Z,4.18
2023-04-15T15:31:27.741Z,4.63
2023-04-15T15:33:54.708Z,8.02
2023-04-15T15:36:21.738Z,2.75
2023-04-15T15:38:48.604Z,4.55
2023-04-15T15:41:15.753Z,3.60
2023-04-15T15:43:42.669Z,5.45
2023-04-15T15:46:09.574Z,4.65
2023-04-15T15:48:36.583Z,4.60
2023-04-15T15:51:04.423Z,4.20
2023-04-15T15:57:31.125Z,1.85
2023-04-15T16:00:18.938Z,7.13
2023-04-15T16:03:04.495Z,2.38
2023-04-15T16:05:32.564Z,6.25
2023-04-15T16:08:00.750Z,5.20
2023-04-15T16:10:28.129Z,3.78
2023-04-15T16:12:55.211Z,5.13
2023-04-15T16:15:28.269Z,3.80
2023-04-15T16:17:55.681Z,4.03
2023-04-15T16:20:22.781Z,7.18
2023-04-15T16:23:04.359Z,3.92
2023-04-15T16:25:34.146Z,3.05
2023-04-15T16:28:18.641Z,3.40
2023-04-15T16:30:55.483Z,2.60
2023-04-15T16:33:22.555Z,5.15
2023-04-15T16:35:55.743Z,5.55
2023-04-15T16:38:28.937Z,4.57
2023-04-15T16:40:57.857Z,8.02
2023-04-15T16:43:37.217Z,10.45
2023-04-15T16:46:04.404Z,5.63
2023-04-15T16:48:31.573Z,6.97
2023-04-15T16:50:58.610Z,6.35
2023-04-15T16:53:27.722Z,3.75
2023-04-15T16:55:54.954Z,4.38
2023-04-15T16:58:30.850Z,7.50
2023-04-15T17:01:01.949Z,6.10
2023-04-15T17:03:29.262Z,2.95
2023-04-15T17:05:56.408Z,3.58
2023-04-15T17:08:23.329Z,7.28
2023-04-15T17:10:53.596Z,5.63
2023-04-15T17:13:23.004Z,5.43
2023-04-15T17:16:00.924Z,5.68
2023-04-15T17:18:30.577Z,6.38
2023-04-15T17:20:57.564Z,7.68
2023-04-15T17:23:25.947Z,4.85
2023-04-15T17:25:56.046Z,4.43
2023-04-15T17:28:24.313Z,8.95
2023-04-15T17:30:51.372Z,7.45
2023-04-15T17:33:59.896Z,3.17
2023-04-15T17:36:08.898Z,6.57
2023-04-15T17:39:22.751Z,13.85
2023-04-15T17:41:52.468Z,5.75
2023-04-15T17:44:24.044Z,5.55
2023-04-15T17:46:52.707Z,9.65
2023-04-15T17:49:22.642Z,4.35
2023-04-15T17:51:49.903Z,8.15
2023-04-15T17:54:23.504Z,6.28
2023-04-15T17:56:51.982Z,6.80
2023-04-15T17:59:19.033Z,7.95
2023-04-15T18:01:46.291Z,5.55
2023-04-15T18:04:15.928Z,7.47
2023-04-15T18:06:45.137Z,7.57
2023-04-15T18:09:14.753Z,5.55
2023-04-15T18:11:49.393Z,10.02
2023-04-15T18:14:30.763Z,5.25
2023-04-15T18:17:03.470Z,8.75
2023-04-15T18:19:33.418Z,6.75
2023-04-15T18:22:00.843Z,4.22
2023-04-15T18:24:30.562Z,4.32
2023-04-15T18:27:00.186Z,6.32
2023-04-15T18:29:34.251Z,8.82
2023-04-15T18:32:03.165Z,7.90
2023-04-15T18:34:32.674Z,10.23
2023-04-15T18:36:59.733Z,5.22
2023-04-15T18:39:27.617Z,8.52
2023-04-15T18:41:57.448Z,4.47
2023-04-15T18:44:24.678Z,11.85
2023-04-15T18:46:57.504Z,7.55
2023-04-15T18:49:24.661Z,5.53
2023-04-15T18:51:51.719Z,3.85
2023-04-15T18:54:20.962Z,3.70
2023-04-15T18:56:48.515Z,3.58
2023-04-15T18:59:28.608Z,5.13
2023-04-15T19:01:57.196Z,6.47
2023-04-15T19:04:25.343Z,7.05
2023-04-15T19:06:52.685Z,4.88
2023-04-15T19:09:19.849Z,4.30
2023-04-15T19:11:47.876Z,3.47
2023-04-15T19:14:19.061Z,6.70
2023-04-15T19:17:08.562Z,8.98
2023-04-15T19:19:35.629Z,6.97
2023-04-15T19:22:03.526Z,4.85
2023-04-15T19:24:37.440Z,4.32
2023-04-15T19:29:31.196Z,3.67
2023-04-15T19:31:58.165Z,3.50
2023-04-15T19:34:25.185Z,4.57
2023-04-15T19:36:52.124Z,2.72
2023-04-15T19:39:19.738Z,7.82
2023-04-15T19:41:47.323Z,2.95
2023-04-15T19:44:14.945Z,4.60
2023-04-15T19:46:45.028Z,5.70
2023-04-15T19:49:11.977Z,4.13
2023-04-15T19:51:39.100Z,6.95
2023-04-15T19:54:09.037Z,6.47
2023-04-15T19:56:38.874Z,8.55
2023-04-15T19:59:08.954Z,4.75
2023-04-15T20:01:35.962Z,5.28
2023-04-15T20:04:05.265Z,8.30
2023-04-15T20:06:32.700Z,9.70
2023-04-15T20:09:02.127Z,5.63
2023-04-15T20:12:05.147Z,11.70
2023-04-15T20:14:21.651Z,13.15
2023-04-15T20:16:48.579Z,12.95
2023-04-15T20:19:15.557Z,5.57
2023-04-15T20:21:42.641Z,8.10
2023-04-15T20:24:09.674Z,10.48
2023-04-15T20:26:39.665Z,6.75
2023-04-15T20:29:06.722Z,10.43
2023-04-15T20:31:34.152Z,6.70
2023-04-15T20:34:01.214Z,8.18
2023-04-15T20:36:28.457Z,7.97
2023-04-15T20:38:55.452Z,10.30
2023-04-15T20:41:23.368Z,10.45
2023-04-15T20:43:50.530Z,10.68
2023-04-15T20:46:27.690Z,7.43
2023-04-15T20:49:05.130Z,10.10
2023-04-15T20:51:43.371Z,7.07
2023-04-15T20:54:15.084Z,9.77
2023-04-15T20:56:42.116Z,8.43
2023-04-15T20:59:09.220Z,7.68
2023-04-15T21:01:43.208Z,5.38
2023-04-15T21:04:10.210Z,11.20
2023-04-15T21:06:37.287Z,9.00
2023-04-15T21:09:11.807Z,11.50
2023-04-15T21:12:00.651Z,9.55
2023-04-15T21:14:33.557Z,14.25
2023-04-15T21:17:08.450Z,13.85
2023-04-15T21:19:38.892Z,10.07
2023-04-15T21:22:14.928Z,8.57
2023-04-15T21:24:41.970Z,12.30
2023-04-15T21:27:11.616Z,8.48
2023-04-15T21:29:40.515Z,9.82
2023-04-15T21:32:07.829Z,8.48
2023-04-15T21:34:35.133Z,13.25
2023-04-15T21:37:02.338Z,13.30
2023-04-15T21:39:29.486Z,12.30
2023-04-15T21:42:00.502Z,16.05
2023-04-15T21:44:29.643Z,9.77
2023-04-15T21:46:56.726Z,15.95
2023-04-15T21:49:25.512Z,12.85
2023-04-15T21:51:52.677Z,21.80
2023-04-15T21:54:19.802Z,11.43
2023-04-15T21:56:51.034Z,11.82
2023-04-15T21:59:18.080Z,13.93
2023-04-15T22:01:45.167Z,11.55
2023-04-15T22:04:12.411Z,15.15
2023-04-15T22:06:44.524Z,11.68
2023-04-15T22:09:13.978Z,10.70
2023-04-15T22:11:43.750Z,13.43
2023-04-15T22:14:10.743Z,14.02
2023-04-15T22:16:37.833Z,10.50
2023-04-15T22:19:08.178Z,8.65
2023-04-15T22:21:35.663Z,8.65
2023-04-15T22:24:39.328Z,12.35
2023-04-15T22:26:52.964Z,11.38
2023-04-15T22:29:20.137Z,13.52
2023-04-15T22:31:47.214Z,16.50
2023-04-15T22:34:20.790Z,10.10
2023-04-15T22:36:51.360Z,13.10
2023-04-15T22:39:19.140Z,12.10
2023-04-15T22:41:46.494Z,11.50
2023-04-15T22:44:13.505Z,12.93
2023-04-15T22:46:40.623Z,10.15
2023-04-15T22:49:08.349Z,17.17
2023-04-15T22:51:36.204Z,15.10
2023-04-15T22:54:06.263Z,12.27
2023-04-15T22:56:33.188Z,14.27
2023-04-15T22:59:00.605Z,16.52
2023-04-15T23:01:27.930Z,14.63
2023-04-15T23:03:56.752Z,14.95
2023-04-15T23:06:30.372Z,10.23
2023-04-15T23:09:00.117Z,16.60
2023-04-15T23:11:29.594Z,12.55
2023-04-15T23:14:02.348Z,15.68
2023-04-15T23:16:29.405Z,10.77
2023-04-15T23:18:56.518Z,11.23
2023-04-15T23:21:25.954Z,14.75
2023-04-15T23:23:53.347Z,17.20
2023-04-15T23:26:20.540Z,12.20
2023-04-15T23:28:49.153Z,10.40
2023-04-15T23:31:16.523Z,11.80
2023-04-15T23:33:46.724Z,13.57
2023-04-15T23:36:13.733Z,12.50
2023-04-15T23:38:41.151Z,14.25
2023-04-15T23:41:09.322Z,15.30
2023-04-15T23:43:36.358Z,14.63
2023-04-15T23:46:03.449Z,14.43
2023-04-15T23:48:31.361Z,14.77
2023-04-15T23:50:58.356Z,16.42
2023-04-15T23:53:25.426Z,13.82
2023-04-15T23:55:52.346Z,16.55
2023-04-15T23:58:19.396Z,10.48
